createdAt,value
2023-12-23T00:00:57.650Z,3.66
2023-12-23T00:04:01.389Z,3.51
2023-12-23T00:07:05.897Z,3.68
2023-12-23T00:10:09.954Z,3.51
2023-12-23T00:13:12.712Z,3.48
2023-12-23T00:16:15.687Z,3.55
2023-12-23T00:19:18.576Z,3.46
2023-12-23T00:22:22.737Z,3.44
2023-12-23T00:25:25.776Z,3.42
2023-12-23T00:28:28.470Z,3.55
2023-12-23T00:31:31.118Z,3.52
2023-12-23T00:34:33.976Z,3.47
2023-12-23T00:37:38.292Z,3.46
2023-12-23T00:40:41.084Z,3.57
2023-12-23T00:43:44.158Z,3.45
2023-12-23T00:46:47.241Z,3.45
2023-12-23T00:49:50.146Z,3.67
2023-12-23T00:52:54.474Z,3.66
2023-12-23T00:55:57.373Z,3.76
2023-12-23T00:59:00.148Z,3.60
2023-12-23T01:02:02.970Z,3.78
2023-12-23T01:05:06.603Z,3.64
2023-12-23T01:08:10.686Z,3.84
2023-12-23T01:11:13.519Z,3.65
2023-12-23T01:14:16.628Z,3.51
2023-12-23T01:17:19.359Z,3.61
2023-12-23T01:20:22.196Z,3.86
2023-12-23T01:23:26.773Z,3.58
2023-12-23T01:26:29.427Z,3.71
2023-12-23T01:29:32.177Z,3.82
2023-12-23T01:32:35.202Z,3.84
2023-12-23T01:35:40.356Z,3.74
2023-12-23T01:38:44.857Z,3.74
2023-12-23T01:41:47.566Z,3.82
2023-12-23T01:44:50.236Z,3.66
2023-12-23T01:47:55.892Z,3.79
2023-12-23T01:50:59.193Z,3.83
2023-12-23T01:54:06.868Z,3.77
2023-12-23T01:57:09.546Z,3.72
2023-12-23T02:00:12.906Z,3.96
2023-12-23T02:03:16.038Z,3.79
2023-12-23T02:06:18.765Z,3.82
2023-12-23T02:09:23.130Z,3.84
2023-12-23T02:12:34.810Z,3.98
2023-12-23T02:15:39.329Z,3.87
2023-12-23T02:18:42.294Z,3.65
2023-12-23T02:21:46.822Z,3.48
2023-12-23T02:24:49.489Z,3.57
2023-12-23T02:27:57.937Z,3.84
2023-12-23T02:31:01.354Z,3.84
2023-12-23T02:34:04.377Z,4.15
2023-12-23T02:37:08.406Z,3.71
2023-12-23T02:40:11.723Z,3.77
2023-12-23T02:43:14.438Z,3.68
2023-12-23T02:46:17.269Z,3.86
2023-12-23T02:49:20.009Z,3.99
2023-12-23T02:52:24.094Z,4.08
2023-12-23T02:55:27.040Z,3.92
2023-12-23T02:58:29.805Z,3.90
2023-12-23T03:01:33.468Z,3.99
2023-12-23T03:04:36.289Z,4.07
2023-12-23T03:07:40.340Z,3.54
2023-12-23T03:10:43.117Z,3.71
2023-12-23T03:13:46.116Z,3.89
2023-12-23T03:16:48.785Z,3.68
2023-12-23T03:19:52.600Z,3.78
2023-12-23T03:22:56.730Z,3.82
2023-12-23T03:25:59.472Z,3.74
2023-12-23T03:29:02.156Z,3.92
2023-12-23T03:32:05.587Z,3.89
2023-12-23T03:35:08.853Z,4.01
2023-12-23T03:38:12.953Z,3.87
2023-12-23T03:41:16.075Z,3.86
2023-12-23T03:44:18.871Z,3.91
2023-12-23T03:47:21.681Z,3.97
2023-12-23T03:50:24.570Z,4.00
2023-12-23T03:53:28.679Z,4.10
2023-12-23T03:56:31.341Z,3.98
2023-12-23T03:59:34.094Z,3.98
2023-12-23T04:02:37.179Z,3.88
2023-12-23T04:05:39.870Z,3.89
2023-12-23T04:08:44.769Z,3.83
2023-12-23T04:11:47.490Z,3.42
2023-12-23T04:14:50.139Z,3.71
2023-12-23T04:17:52.991Z,3.41
2023-12-23T04:20:56.034Z,3.23
2023-12-23T04:24:00.698Z,3.17
2023-12-23T04:27:04.251Z,3.05
2023-12-23T04:30:08.239Z,3.05
2023-12-23T04:33:11.688Z,3.24
2023-12-23T04:36:14.634Z,2.97
2023-12-23T04:39:18.683Z,3.02
2023-12-23T04:42:21.635Z,3.16
2023-12-23T04:45:24.440Z,3.07
2023-12-23T04:48:27.458Z,3.34
2023-12-23T04:51:30.126Z,3.61
2023-12-23T04:54:34.539Z,3.52
2023-12-23T04:57:37.636Z,3.30
2023-12-23T05:00:40.593Z,3.43
2023-12-23T05:03:43.403Z,3.53
2023-12-23T05:06:46.585Z,3.35
2023-12-23T05:09:50.746Z,3.24
2023-12-23T05:12:53.637Z,3.46
2023-12-23T05:15:56.601Z,3.35
2023-12-23T05:18:59.277Z,3.41
2023-12-23T05:22:01.934Z,3.47
2023-12-23T05:25:06.396Z,3.43
2023-12-23T05:28:09.029Z,3.31
2023-12-23T05:31:11.658Z,3.28
2023-12-23T05:34:14.699Z,3.24
2023-12-23T05:37:17.630Z,3.03
2023-12-23T05:40:21.606Z,3.15
2023-12-23T05:43:24.613Z,3.19
2023-12-23T05:46:27.691Z,3.26
2023-12-23T05:49:30.315Z,3.11
2023-12-23T05:52:32.938Z,3.05
2023-12-23T05:55:37.221Z,3.20
2023-12-23T05:58:39.958Z,3.25
2023-12-23T06:01:42.664Z,3.21
2023-12-23T06:04:45.786Z,3.32
2023-12-23T06:07:48.983Z,3.31
2023-12-23T06:10:58.030Z,3.59
2023-12-23T06:14:01.515Z,3.76
2023-12-23T06:17:06.435Z,3.76
2023-12-23T06:20:10.092Z,3.92
2023-12-23T06:23:12.887Z,4.12
2023-12-23T06:26:17.352Z,4.08
2023-12-23T06:29:20.153Z,4.25
2023-12-23T06:32:23.017Z,4.37
2023-12-23T06:35:26.045Z,4.38
2023-12-23T06:38:28.884Z,4.41
2023-12-23T06:41:32.903Z,4.15
2023-12-23T06:44:36.201Z,4.03
2023-12-23T06:47:38.916Z,4.22
2023-12-23T06:50:41.634Z,4.26
2023-12-23T06:53:44.352Z,3.90
2023-12-23T06:56:48.362Z,3.84
2023-12-23T06:59:50.987Z,3.71
2023-12-23T07:02:53.778Z,4.02
2023-12-23T07:05:56.856Z,4.17
2023-12-23T07:08:59.530Z,4.04
2023-12-23T07:12:03.826Z,4.11
2023-12-23T07:15:07.936Z,4.26
2023-12-23T07:18:11.861Z,3.97
2023-12-23T07:21:14.831Z,4.07
2023-12-23T07:24:17.689Z,3.96
2023-12-23T07:27:21.730Z,3.95
2023-12-23T07:30:24.463Z,3.96
2023-12-23T07:33:27.521Z,3.85
2023-12-23T07:36:30.671Z,3.55
2023-12-23T07:39:33.325Z,3.65
2023-12-23T07:42:37.418Z,3.60
2023-12-23T07:45:40.325Z,3.47
2023-12-23T07:48:43.057Z,3.59
2023-12-23T07:51:45.881Z,3.51
2023-12-23T07:54:48.668Z,3.44
2023-12-23T07:57:52.860Z,3.43
2023-12-23T08:00:57.150Z,3.27
2023-12-23T08:03:59.923Z,3.19
2023-12-23T08:07:02.646Z,3.40
2023-12-23T08:10:06.136Z,3.36
2023-12-23T08:13:10.176Z,3.28
2023-12-23T08:16:12.837Z,3.21
2023-12-23T08:19:18.308Z,3.23
2023-12-23T08:22:22.620Z,3.28
2023-12-23T08:25:25.704Z,3.18
2023-12-23T08:28:29.909Z,3.31
2023-12-23T08:31:32.601Z,3.18
2023-12-23T08:34:35.382Z,3.30
2023-12-23T08:37:38.251Z,2.85
2023-12-23T08:40:41.238Z,3.00
2023-12-23T08:43:45.431Z,3.13
2023-12-23T08:46:48.470Z,3.12
2023-12-23T08:49:51.127Z,3.09
2023-12-23T08:52:53.905Z,3.21
2023-12-23T08:55:56.811Z,3.30
2023-12-23T08:59:00.862Z,3.32
2023-12-23T09:02:03.734Z,3.29
2023-12-23T09:05:07.536Z,3.40
2023-12-23T09:08:10.532Z,3.29
2023-12-23T09:11:13.348Z,3.04
2023-12-23T09:14:17.867Z,3.21
2023-12-23T09:17:20.898Z,3.14
2023-12-23T09:20:23.837Z,3.12
2023-12-23T09:23:27.202Z,3.08
2023-12-23T09:26:30.099Z,3.08
2023-12-23T09:29:34.148Z,3.27
2023-12-23T09:32:37.092Z,2.84
2023-12-23T09:35:40.057Z,2.98
2023-12-23T09:38:42.711Z,3.26
2023-12-23T09:41:48.025Z,3.36
2023-12-23T09:44:52.355Z,3.28
2023-12-23T09:47:55.752Z,3.11
2023-12-23T09:50:59.048Z,3.27
2023-12-23T09:54:06.938Z,3.35
2023-12-23T09:57:09.829Z,3.17
2023-12-23T10:00:15.033Z,3.41
2023-12-23T10:03:17.788Z,3.22
2023-12-23T10:06:22.554Z,3.16
2023-12-23T10:09:25.512Z,3.21
2023-12-23T10:12:28.170Z,3.24
2023-12-23T10:15:32.234Z,3.38
2023-12-23T10:18:35.175Z,3.20
2023-12-23T10:21:38.035Z,3.41
2023-12-23T10:24:41.052Z,3.42
2023-12-23T10:27:44.818Z,3.46
2023-12-23T10:30:50.640Z,3.56
2023-12-23T10:33:59.427Z,3.67
2023-12-23T10:37:02.870Z,3.72
2023-12-23T10:40:14.036Z,3.72
2023-12-23T10:43:18.945Z,3.72
2023-12-23T10:46:23.468Z,3.65
2023-12-23T10:49:26.798Z,3.62
2023-12-23T10:52:31.726Z,3.61
2023-12-23T10:55:35.852Z,3.66
2023-12-23T10:58:41.705Z,3.52
2023-12-23T11:01:47.548Z,3.66
2023-12-23T11:04:53.377Z,3.76
2023-12-23T11:08:04.077Z,3.79
2023-12-23T11:11:10.481Z,3.52
2023-12-23T11:14:13.482Z,3.71
2023-12-23T11:17:29.604Z,3.80
2023-12-23T11:20:46.159Z,3.76
2023-12-23T11:23:49.370Z,3.69
2023-12-23T11:26:54.899Z,3.85
2023-12-23T11:30:00.392Z,3.94
2023-12-23T11:33:05.937Z,3.93
2023-12-23T11:36:09.484Z,3.94
2023-12-23T11:39:14.819Z,3.85
2023-12-23T11:42:18.209Z,3.77
2023-12-23T11:45:21.673Z,3.80
2023-12-23T11:48:26.269Z,3.84
2023-12-23T11:51:29.420Z,3.76
2023-12-23T11:54:32.487Z,3.83
2023-12-23T11:57:35.716Z,3.58
2023-12-23T12:00:40.011Z,3.70
2023-12-23T12:03:44.427Z,3.83
2023-12-23T12:06:47.093Z,3.90
2023-12-23T12:09:50.153Z,3.65
2023-12-23T12:12:53.228Z,3.77
2023-12-23T12:15:56.185Z,3.79
2023-12-23T12:19:00.644Z,3.78
2023-12-23T12:22:03.587Z,3.77
2023-12-23T12:25:07.381Z,3.81
2023-12-23T12:28:10.624Z,3.88
2023-12-23T12:31:15.960Z,4.11
2023-12-23T12:34:20.334Z,4.06
2023-12-23T12:37:24.565Z,3.97
2023-12-23T12:40:27.274Z,4.14
2023-12-23T12:43:32.829Z,4.12
2023-12-23T12:46:37.101Z,4.11
2023-12-23T12:49:55.714Z,4.16
2023-12-23T12:53:06.321Z,3.98
2023-12-23T12:56:10.365Z,4.01
2023-12-23T12:59:13.471Z,4.10
2023-12-23T13:02:17.193Z,4.05
2023-12-23T13:05:22.373Z,4.20
2023-12-23T13:08:25.332Z,4.25
2023-12-23T13:11:29.600Z,4.13
2023-12-23T13:14:32.585Z,4.24
2023-12-23T13:17:35.433Z,4.06
2023-12-23T13:20:40.480Z,4.18
2023-12-23T13:23:43.318Z,4.14
2023-12-23T13:26:46.538Z,4.27
2023-12-23T13:29:49.218Z,4.23
2023-12-23T13:32:52.806Z,4.23
2023-12-23T13:35:56.958Z,4.01
2023-12-23T13:38:59.935Z,4.04
2023-12-23T13:42:02.744Z,4.17
2023-12-23T13:45:06.028Z,4.08
2023-12-23T13:48:09.270Z,4.30
2023-12-23T13:51:13.970Z,4.25
2023-12-23T13:54:16.768Z,4.21
2023-12-23T13:57:19.824Z,4.36
2023-12-23T14:00:22.855Z,4.28
2023-12-23T14:03:25.581Z,4.44
2023-12-23T14:06:30.035Z,4.37
2023-12-23T14:09:34.787Z,4.24
2023-12-23T14:12:37.526Z,4.48
2023-12-23T14:15:40.622Z,4.47
2023-12-23T14:18:43.736Z,4.51
2023-12-23T14:21:47.822Z,4.76
2023-12-23T14:24:50.826Z,4.71
2023-12-23T14:27:53.844Z,4.63
2023-12-23T14:30:56.580Z,4.75
2023-12-23T14:33:59.599Z,4.75
2023-12-23T14:37:03.879Z,4.75
2023-12-23T14:40:07.917Z,4.80
2023-12-23T14:43:11.109Z,4.77
2023-12-23T14:46:15.526Z,4.72
2023-12-23T14:49:18.340Z,4.65
2023-12-23T14:52:23.075Z,4.51
2023-12-23T14:55:26.109Z,4.58
2023-12-23T14:58:28.931Z,4.50
2023-12-23T15:01:35.140Z,4.51
2023-12-23T15:04:39.531Z,4.52
2023-12-23T15:07:43.786Z,4.46
2023-12-23T15:10:46.434Z,4.57
2023-12-23T15:13:49.876Z,4.70
2023-12-23T15:16:53.080Z,4.66
2023-12-23T15:19:55.766Z,4.75
2023-12-23T15:22:59.852Z,4.72
2023-12-23T15:26:02.854Z,4.73
2023-12-23T15:29:06.334Z,4.93
2023-12-23T15:32:09.161Z,4.94
2023-12-23T15:35:12.057Z,4.91
2023-12-23T15:38:16.464Z,4.87
2023-12-23T15:41:19.295Z,4.91
2023-12-23T15:44:22.505Z,4.89
2023-12-23T15:47:28.129Z,4.95
2023-12-23T15:50:31.079Z,5.11
2023-12-23T15:53:36.023Z,5.14
2023-12-23T15:56:40.670Z,5.25
2023-12-23T15:59:43.660Z,5.08
2023-12-23T16:02:46.327Z,5.11
2023-12-23T16:05:49.109Z,5.17
2023-12-23T16:08:53.297Z,5.25
2023-12-23T16:11:56.123Z,5.38
2023-12-23T16:14:58.930Z,5.28
2023-12-23T16:18:03.000Z,5.36
2023-12-23T16:21:06.447Z,5.34
2023-12-23T16:24:10.646Z,5.38
2023-12-23T16:27:13.653Z,5.15
2023-12-23T16:30:17.436Z,5.20
2023-12-23T16:33:20.289Z,5.24
2023-12-23T16:36:23.445Z,5.36
2023-12-23T16:39:27.886Z,5.35
2023-12-23T16:42:30.950Z,5.48
2023-12-23T16:45:33.840Z,5.62
2023-12-23T16:48:36.972Z,5.69
2023-12-23T16:51:40.013Z,5.52
2023-12-23T16:54:45.537Z,5.38
2023-12-23T16:57:48.647Z,5.54
2023-12-23T17:00:51.744Z,5.54
2023-12-23T17:03:55.038Z,5.22
2023-12-23T17:06:57.790Z,5.31
2023-12-23T17:10:02.200Z,4.95
2023-12-23T17:13:05.384Z,4.96
2023-12-23T17:16:08.552Z,5.24
2023-12-23T17:19:11.378Z,5.01
2023-12-23T17:22:14.451Z,4.88
2023-12-23T17:25:18.435Z,4.89
2023-12-23T17:28:21.335Z,4.80
2023-12-23T17:31:24.426Z,4.82
2023-12-23T17:34:27.135Z,5.01
2023-12-23T17:37:29.877Z,5.03
2023-12-23T17:40:34.294Z,4.94
2023-12-23T17:43:39.119Z,4.62
2023-12-23T17:46:43.455Z,5.12
2023-12-23T17:49:46.201Z,5.11
2023-12-23T17:52:49.160Z,5.12
2023-12-23T17:55:53.877Z,5.01
2023-12-23T17:58:57.399Z,5.21
2023-12-23T18:02:00.932Z,5.06
2023-12-23T18:05:04.091Z,4.95
2023-12-23T18:08:07.550Z,5.15
2023-12-23T18:11:12.000Z,5.34
2023-12-23T18:14:15.530Z,4.93
2023-12-23T18:17:18.691Z,5.17
2023-12-23T18:20:21.585Z,5.45
2023-12-23T18:23:24.745Z,5.56
2023-12-23T18:26:29.356Z,5.51
2023-12-23T18:29:32.387Z,5.66
2023-12-23T18:32:35.454Z,5.74
2023-12-23T18:35:38.181Z,5.70
2023-12-23T18:38:41.036Z,5.70
2023-12-23T18:41:45.220Z,5.67
2023-12-23T18:44:47.884Z,5.67
2023-12-23T18:47:50.878Z,5.66
2023-12-23T18:50:53.718Z,5.53
2023-12-23T18:53:56.671Z,5.66
2023-12-23T18:57:01.540Z,5.67
2023-12-23T19:00:05.288Z,5.65
2023-12-23T19:03:12.994Z,5.65
2023-12-23T19:06:16.041Z,5.50
2023-12-23T19:09:18.668Z,5.57
2023-12-23T19:12:24.542Z,5.60
2023-12-23T19:15:27.197Z,5.68
2023-12-23T19:18:30.037Z,5.69
2023-12-23T19:21:33.431Z,5.61
2023-12-23T19:24:36.680Z,5.58
2023-12-23T19:27:40.738Z,5.70
2023-12-23T19:30:44.042Z,5.62
2023-12-23T19:33:47.087Z,5.74
2023-12-23T19:36:50.272Z,5.68
2023-12-23T19:39:59.797Z,5.67
2023-12-23T19:43:11.872Z,5.56
2023-12-23T19:46:14.921Z,5.53
2023-12-23T19:49:18.104Z,5.59
2023-12-23T19:52:21.247Z,5.66
2023-12-23T19:55:24.205Z,5.68
2023-12-23T19:58:28.182Z,5.65
2023-12-23T20:01:31.243Z,5.64
2023-12-23T20:04:34.293Z,5.61
2023-12-23T20:07:36.957Z,5.63
2023-12-23T20:10:40.555Z,5.71
2023-12-23T20:13:45.018Z,5.72
2023-12-23T20:16:47.714Z,5.75
2023-12-23T20:19:50.823Z,5.70
2023-12-23T20:22:54.023Z,5.76
2023-12-23T20:25:56.864Z,5.77
2023-12-23T20:29:01.440Z,5.75
2023-12-23T20:32:05.422Z,5.75
2023-12-23T20:35:08.889Z,5.76
2023-12-23T20:38:11.760Z,5.76
2023-12-23T20:41:14.552Z,5.69
2023-12-23T20:44:19.084Z,5.74
2023-12-23T20:47:21.893Z,5.70
2023-12-23T20:50:24.670Z,5.60
2023-12-23T20:53:27.400Z,5.56
2023-12-23T20:56:30.728Z,5.59
2023-12-23T20:59:34.833Z,5.52
2023-12-23T21:02:37.790Z,5.60
2023-12-23T21:05:40.684Z,5.69
2023-12-23T21:08:43.902Z,5.74
2023-12-23T21:11:46.883Z,5.81
2023-12-23T21:14:51.487Z,5.85
2023-12-23T21:17:54.661Z,5.86
2023-12-23T21:20:57.976Z,5.88
2023-12-23T21:24:04.809Z,5.80
2023-12-23T21:27:07.943Z,5.83
2023-12-23T21:30:13.137Z,5.82
2023-12-23T21:33:16.118Z,5.83
2023-12-23T21:36:18.950Z,5.84
2023-12-23T21:39:21.856Z,5.83
2023-12-23T21:42:24.981Z,5.78
2023-12-23T21:45:29.059Z,5.77
2023-12-23T21:48:31.907Z,5.81
2023-12-23T21:51:35.037Z,5.80
2023-12-23T21:54:38.163Z,5.75
2023-12-23T21:57:40.887Z,5.76
2023-12-23T22:00:47.052Z,5.81
2023-12-23T22:03:50.012Z,5.79
2023-12-23T22:06:52.782Z,5.80
2023-12-23T22:09:56.260Z,5.83
2023-12-23T22:12:59.158Z,5.79
2023-12-23T22:16:03.361Z,5.80
2023-12-23T22:19:06.422Z,5.80
2023-12-23T22:22:09.098Z,5.79
2023-12-23T22:25:12.010Z,5.78
2023-12-23T22:28:15.830Z,5.87
2023-12-23T22:31:20.157Z,5.81
2023-12-23T22:34:22.967Z,5.79
2023-12-23T22:37:26.124Z,5.83
2023-12-23T22:40:28.975Z,5.81
2023-12-23T22:43:31.792Z,5.87
2023-12-23T22:46:38.849Z,5.81
2023-12-23T22:49:43.093Z,5.79
2023-12-23T22:52:46.178Z,5.84
2023-12-23T22:55:49.379Z,5.77
2023-12-23T22:58:52.264Z,5.84
2023-12-23T23:01:57.039Z,5.84
2023-12-23T23:05:00.557Z,5.78
2023-12-23T23:08:05.070Z,5.87
2023-12-23T23:11:08.039Z,5.80
2023-12-23T23:14:11.206Z,5.86
2023-12-23T23:17:15.525Z,5.74
2023-12-23T23:20:19.200Z,5.79
2023-12-23T23:23:22.022Z,5.79
2023-12-23T23:26:24.972Z,5.82
2023-12-23T23:29:28.060Z,5.71
2023-12-23T23:32:32.353Z,5.77
2023-12-23T23:35:35.287Z,5.69
2023-12-23T23:38:37.973Z,5.73
2023-12-23T23:41:40.634Z,5.77
2023-12-23T23:44:43.356Z,5.72
2023-12-23T23:47:47.629Z,5.67
2023-12-23T23:50:50.691Z,5.64
2023-12-23T23:53:54.181Z,5.44
2023-12-23T23:56:57.381Z,5.54
